createdAt,value
2022-09-07T00:01:46.897Z,100494.31
2022-09-07T00:04:49.412Z,100469.91
2022-09-07T00:07:51.811Z,100472.69
2022-09-07T00:11:00.562Z,100474.66
2022-09-07T00:14:02.867Z,100463.47
2022-09-07T00:17:05.420Z,100474.25
2022-09-07T00:20:09.284Z,100473.81
2022-09-07T00:23:11.832Z,100484.28
2022-09-07T00:26:19.917Z,100481.06
2022-09-07T00:29:22.691Z,100456.25
2022-09-07T00:32:24.942Z,100447.03
2022-09-07T00:35:27.479Z,100473.03
2022-09-07T00:38:29.930Z,100471.44
2022-09-07T00:41:32.646Z,100472.22
2022-09-07T00:44:44.030Z,100472.22
2022-09-07T00:47:49.263Z,100478.59
2022-09-07T00:51:03.040Z,100476.97
2022-09-07T00:54:14.138Z,100472.97
2022-09-07T00:57:16.716Z,100459.31
2022-09-07T01:00:19.298Z,100455.34
2022-09-07T01:03:27.553Z,100450.09
2022-09-07T01:06:33.322Z,100468.94
2022-09-07T01:09:36.524Z,100469.72
2022-09-07T01:12:39.234Z,100472.06
2022-09-07T01:15:51.758Z,100470.87
2022-09-07T01:19:29.515Z,100435.25
2022-09-07T01:22:48.855Z,100465.66
2022-09-07T01:26:09.958Z,100456.78
2022-09-07T01:29:42.268Z,100470.38
2022-09-07T01:33:19.457Z,100446.75
2022-09-07T01:36:29.033Z,100443.94
2022-09-07T01:39:56.542Z,100459.91
2022-09-07T01:43:06.784Z,100452.72
2022-09-07T01:46:19.481Z,100457.50
2022-09-07T01:49:28.128Z,100439.09
2022-09-07T01:52:42.450Z,100425.09
2022-09-07T01:56:06.842Z,100446.28
2022-09-07T01:59:34.060Z,100418.25
2022-09-07T02:02:56.017Z,100441.03
2022-09-07T02:06:07.260Z,100446.16
2022-09-07T02:09:41.982Z,100423.75
2022-09-07T02:13:00.826Z,100440.13
2022-09-07T02:16:07.465Z,100448.50
2022-09-07T02:19:16.391Z,100430.47
2022-09-07T02:22:25.036Z,100422.50
2022-09-07T02:25:37.801Z,100447.69
2022-09-07T02:28:40.416Z,100420.06
2022-09-07T02:31:43.312Z,100426.09
2022-09-07T02:34:46.325Z,100412.47
2022-09-07T02:37:50.284Z,100424.88
2022-09-07T02:40:54.843Z,100422.44
2022-09-07T02:43:58.192Z,100419.66
2022-09-07T02:47:19.056Z,100406.84
2022-09-07T02:50:47.141Z,100425.25
2022-09-07T02:54:06.771Z,100394.44
2022-09-07T02:57:28.091Z,100403.19
2022-09-07T03:00:35.873Z,100416.47
2022-09-07T03:03:41.311Z,100403.66
2022-09-07T03:06:50.505Z,100410.03
2022-09-07T03:09:58.257Z,100397.22
2022-09-07T03:13:00.499Z,100390.78
2022-09-07T03:16:03.078Z,100415.59
2022-09-07T03:19:05.766Z,100391.59
2022-09-07T03:22:08.570Z,100407.47
2022-09-07T03:25:11.121Z,100412.38
2022-09-07T03:28:13.722Z,100401.53
2022-09-07T03:31:16.113Z,100383.13
2022-09-07T03:34:18.654Z,100419.09
2022-09-07T03:37:20.983Z,100420.28
2022-09-07T03:40:23.480Z,100420.72
2022-09-07T03:43:26.051Z,100427.47
2022-09-07T03:46:28.572Z,100421.47
2022-09-07T03:49:30.917Z,100405.03
2022-09-07T03:52:34.514Z,100420.63
2022-09-07T03:55:36.735Z,100408.97
2022-09-07T03:58:39.536Z,100410.50
2022-09-07T04:01:41.894Z,100432.12
2022-09-07T04:04:48.879Z,100416.06
2022-09-07T04:07:52.812Z,100439.31
2022-09-07T04:11:00.105Z,100445.66
2022-09-07T04:14:02.657Z,100424.75
2022-09-07T04:17:05.622Z,100452.78
2022-09-07T04:20:08.356Z,100431.88
2022-09-07T04:23:11.098Z,100444.78
2022-09-07T04:26:31.675Z,100441.16
2022-09-07T04:29:34.256Z,100434.72
2022-09-07T04:32:36.578Z,100443.19
2022-09-07T04:35:41.091Z,100445.16
2022-09-07T04:38:43.715Z,100445.56
2022-09-07T04:41:46.236Z,100450.34
2022-09-07T04:44:51.443Z,100456.00
2022-09-07T04:47:54.019Z,100441.53
2022-09-07T04:50:56.331Z,100461.22
2022-09-07T04:54:01.115Z,100460.84
2022-09-07T04:57:03.381Z,100457.63
2022-09-07T05:00:08.642Z,100448.09
2022-09-07T05:03:10.913Z,100456.97
2022-09-07T05:06:14.798Z,100446.63
2022-09-07T05:09:17.008Z,100459.88
2022-09-07T05:12:19.630Z,100459.50
2022-09-07T05:15:22.642Z,100444.69
2022-09-07T05:18:25.950Z,100476.34
2022-09-07T05:21:31.555Z,100477.19
2022-09-07T05:24:37.098Z,100454.03
2022-09-07T05:27:39.437Z,100452.50
2022-09-07T05:37:26.895Z,100475.34
2022-09-07T05:40:36.130Z,100478.97
2022-09-07T05:47:04.357Z,100472.66
2022-09-07T05:50:08.048Z,100466.22
2022-09-07T05:53:10.307Z,100490.25
2022-09-07T05:56:13.834Z,100491.94
2022-09-07T05:59:16.155Z,100497.97
2022-09-07T06:02:18.867Z,100492.03
2022-09-07T06:05:21.635Z,100475.97
2022-09-07T06:08:23.970Z,100472.84
2022-09-07T06:11:27.361Z,100499.31
2022-09-07T06:14:29.589Z,100467.34
2022-09-07T06:17:32.093Z,100469.81
2022-09-07T06:20:34.344Z,100490.25
2022-09-07T06:23:38.387Z,100491.44
2022-09-07T06:26:40.576Z,100498.69
2022-09-07T06:29:43.018Z,100497.97
2022-09-07T06:32:45.806Z,100493.59
2022-09-07T06:35:57.072Z,100496.44
2022-09-07T06:39:01.565Z,100470.91
2022-09-07T06:42:04.364Z,100475.78
2022-09-07T06:45:07.617Z,100495.06
2022-09-07T06:48:10.179Z,100489.53
2022-09-07T06:51:15.597Z,100470.34
2022-09-07T06:57:40.489Z,100488.84
2022-09-07T07:00:43.077Z,100472.84
2022-09-07T07:03:46.663Z,100484.06
2022-09-07T07:06:49.238Z,100484.84
2022-09-07T07:09:51.483Z,100484.81
2022-09-07T07:12:57.737Z,100487.94
2022-09-07T07:16:08.879Z,100490.31
2022-09-07T07:19:11.470Z,100491.75
2022-09-07T07:22:42.555Z,100473.25
2022-09-07T07:25:37.339Z,100470.38
2022-09-07T07:32:07.151Z,100492.53
2022-09-07T07:35:10.211Z,100499.16
2022-09-07T07:51:30.883Z,100490.81
2022-09-07T07:54:36.819Z,100489.72
2022-09-07T07:57:39.427Z,100474.59
2022-09-07T08:00:54.174Z,100475.22
2022-09-07T08:03:57.610Z,100468.44
2022-09-07T08:07:00.314Z,100479.47
2022-09-07T08:10:03.081Z,100486.88
2022-09-07T08:13:05.563Z,100463.31
2022-09-07T08:16:09.830Z,100471.41
2022-09-07T08:19:12.154Z,100478.25
2022-09-07T08:22:16.803Z,100477.53
2022-09-07T08:25:22.484Z,100494.13
2022-09-07T08:28:32.197Z,100490.75
2022-09-07T08:31:37.138Z,100478.72
2022-09-07T08:34:49.605Z,100485.38
2022-09-07T08:37:51.871Z,100481.69
2022-09-07T08:40:54.669Z,100481.25
2022-09-07T08:44:01.855Z,100470.25
2022-09-07T08:47:39.660Z,100471.75
2022-09-07T08:51:01.146Z,100474.44
2022-09-07T08:54:05.708Z,100470.56
2022-09-07T08:57:24.697Z,100474.34
2022-09-07T09:00:27.447Z,100470.94
2022-09-07T09:03:32.960Z,100449.34
2022-09-07T09:07:04.182Z,100464.03
2022-09-07T09:10:15.544Z,100467.84
2022-09-07T09:13:25.716Z,100459.91
2022-09-07T09:16:54.305Z,100462.09
2022-09-07T09:20:17.027Z,100463.53
2022-09-07T09:23:40.269Z,100462.88
2022-09-07T09:26:47.394Z,100460.03
2022-09-07T09:29:49.754Z,100469.62
2022-09-07T09:33:12.123Z,100460.75
2022-09-07T09:36:35.489Z,100455.44
2022-09-07T09:39:40.058Z,100455.75
2022-09-07T09:43:01.881Z,100423.28
2022-09-07T09:46:18.103Z,100458.31
2022-09-07T09:49:28.337Z,100423.44
2022-09-07T09:52:44.821Z,100445.28
2022-09-07T09:55:52.871Z,100432.09
2022-09-07T10:05:58.069Z,100423.94
2022-09-07T10:09:02.349Z,100432.38
2022-09-07T10:12:07.558Z,100417.34
2022-09-07T10:15:31.143Z,100422.28
2022-09-07T10:18:39.552Z,100427.94
2022-09-07T10:21:44.761Z,100412.22
2022-09-07T10:24:47.309Z,100413.87
2022-09-07T10:28:06.159Z,100421.66
2022-09-07T10:31:32.547Z,100408.06
2022-09-07T10:34:43.544Z,100410.47
2022-09-07T10:38:06.792Z,100421.75
2022-09-07T10:41:09.904Z,100418.78
2022-09-07T10:44:19.554Z,100413.41
2022-09-07T10:47:30.539Z,100407.78
2022-09-07T10:50:53.267Z,100390.59
2022-09-07T10:54:34.147Z,100408.34
2022-09-07T10:58:13.861Z,100388.47
2022-09-07T11:01:54.461Z,100407.06
2022-09-07T11:05:05.218Z,100405.25
2022-09-07T11:08:16.133Z,100401.94
2022-09-07T11:15:09.139Z,100401.81
2022-09-07T11:18:19.845Z,100400.97
2022-09-07T11:25:29.899Z,100395.88
2022-09-07T11:28:46.323Z,100383.44
2022-09-07T11:32:00.835Z,100376.72
2022-09-07T11:35:12.320Z,100372.25
2022-09-07T11:38:57.178Z,100370.50
2022-09-07T11:45:46.599Z,100357.06
2022-09-07T11:48:56.501Z,100353.94
2022-09-07T11:52:05.466Z,100348.16
2022-09-07T11:55:20.578Z,100355.22
2022-09-07T11:58:47.287Z,100355.84
2022-09-07T12:02:42.051Z,100360.62
2022-09-07T12:06:07.352Z,100343.94
2022-09-07T12:09:14.878Z,100358.50
2022-09-07T12:12:29.761Z,100345.37
2022-09-07T12:15:57.266Z,100341.22
2022-09-07T12:19:21.249Z,100328.00
2022-09-07T12:22:23.800Z,100341.41
2022-09-07T12:25:29.356Z,100329.91
2022-09-07T12:28:34.434Z,100322.63
2022-09-07T12:31:57.713Z,100326.75
2022-09-07T12:35:02.062Z,100285.47
2022-09-07T12:38:18.641Z,100329.72
2022-09-07T12:41:24.228Z,100335.63
2022-09-07T12:44:29.396Z,100313.38
2022-09-07T12:47:31.848Z,100325.78
2022-09-07T12:50:40.243Z,100308.59
2022-09-07T12:54:13.106Z,100315.34
2022-09-07T12:57:46.179Z,100312.81
2022-09-07T13:01:31.094Z,100297.38
2022-09-07T13:04:55.183Z,100314.09
2022-09-07T13:08:09.482Z,100319.44
2022-09-07T13:11:37.544Z,100300.78
2022-09-07T13:14:50.896Z,100300.84
2022-09-07T13:17:57.917Z,100244.09
2022-09-07T13:21:14.737Z,100261.94
2022-09-07T13:28:03.981Z,100301.63
2022-09-07T13:31:30.103Z,100233.28
2022-09-07T13:34:32.421Z,100286.44
2022-09-07T13:37:43.982Z,100285.72
2022-09-07T13:40:48.560Z,100280.31
2022-09-07T13:44:00.888Z,100276.59
2022-09-07T13:47:13.095Z,100274.28
2022-09-07T13:50:30.024Z,100276.53
2022-09-07T13:54:03.217Z,100271.00
2022-09-07T13:57:24.524Z,100259.31
2022-09-07T14:00:28.384Z,100256.00
2022-09-07T14:03:45.248Z,100252.31
2022-09-07T14:06:47.536Z,100239.56
2022-09-07T14:10:19.696Z,100236.75
2022-09-07T14:13:21.987Z,100249.12
2022-09-07T14:16:24.572Z,100238.09
2022-09-07T14:19:40.402Z,100230.59
2022-09-07T14:22:44.356Z,100258.09
2022-09-07T14:29:22.403Z,100250.06
2022-09-07T14:32:25.421Z,100231.47
2022-09-07T14:35:38.292Z,100220.41
2022-09-07T14:42:05.360Z,100243.47
2022-09-07T14:45:22.582Z,100218.28
2022-09-07T14:48:32.366Z,100233.37
2022-09-07T14:51:44.853Z,100228.97
2022-09-07T14:54:52.512Z,100235.12
2022-09-07T14:58:39.944Z,100233.56
2022-09-07T15:01:42.642Z,100235.66
2022-09-07T15:04:46.626Z,100228.50
2022-09-07T15:07:57.889Z,100231.81
2022-09-07T15:14:26.892Z,100213.56
2022-09-07T15:17:48.118Z,100230.87
2022-09-07T15:20:50.866Z,100232.44
2022-09-07T15:23:58.577Z,100216.06
2022-09-07T15:27:02.667Z,100229.66
2022-09-07T15:30:07.166Z,100220.03
2022-09-07T15:33:11.443Z,100221.06
2022-09-07T15:36:16.274Z,100209.06
2022-09-07T15:39:21.386Z,100206.25
2022-09-07T15:45:48.085Z,100211.00
2022-09-07T15:48:51.980Z,100219.13
2022-09-07T15:52:05.086Z,100222.31
2022-09-07T15:55:08.794Z,100227.97
2022-09-07T15:58:12.900Z,100236.19
2022-09-07T16:04:38.774Z,100239.00
2022-09-07T16:11:19.729Z,100215.91
2022-09-07T16:14:22.059Z,100242.72
2022-09-07T16:17:27.486Z,100234.00
2022-09-07T16:20:38.582Z,100233.13
2022-09-07T16:23:48.828Z,100209.22
2022-09-07T16:27:24.261Z,100209.41
2022-09-07T16:30:28.963Z,100160.25
2022-09-07T16:33:36.654Z,100153.22
2022-09-07T16:36:39.867Z,100220.72
2022-09-07T16:39:42.625Z,100221.25
2022-09-07T16:42:47.249Z,100191.47
2022-09-07T16:46:05.138Z,100216.34
2022-09-07T16:49:07.797Z,100190.63
2022-09-07T16:52:12.818Z,100195.03
2022-09-07T16:55:15.555Z,100176.13
2022-09-07T16:58:36.953Z,100196.13
2022-09-07T17:01:39.846Z,100185.38
2022-09-07T17:04:45.305Z,100175.25
2022-09-07T17:07:47.899Z,100182.94
2022-09-07T17:10:50.268Z,100173.22
2022-09-07T17:13:54.039Z,100191.56
2022-09-07T17:17:00.966Z,100185.25
2022-09-07T17:20:10.742Z,100164.25
2022-09-07T17:23:16.818Z,100161.25
2022-09-07T17:26:27.051Z,100183.59
2022-09-07T17:29:37.185Z,100187.72
2022-09-07T17:32:42.533Z,100191.06
2022-09-07T17:35:45.558Z,100187.09
2022-09-07T17:42:11.247Z,100200.63
2022-09-07T17:45:20.017Z,100202.03
2022-09-07T17:48:22.243Z,100202.81
2022-09-07T17:51:26.252Z,100209.41
2022-09-07T17:54:30.184Z,100215.06
2022-09-07T17:57:34.857Z,100210.75
2022-09-07T18:00:40.180Z,100191.56
2022-09-07T18:03:42.945Z,100182.28
2022-09-07T18:06:45.255Z,100202.91
2022-09-07T18:09:47.764Z,100221.88
2022-09-07T18:12:55.444Z,100234.03
2022-09-07T18:15:58.511Z,100222.31
2022-09-07T18:19:03.159Z,100240.66
2022-09-07T18:22:05.925Z,100243.09
2022-09-07T18:25:10.343Z,100238.06
2022-09-07T18:31:35.656Z,100247.31
2022-09-07T18:34:40.751Z,100227.09
2022-09-07T18:37:43.547Z,100244.59
2022-09-07T18:40:46.199Z,100241.03
2022-09-07T18:43:48.552Z,100243.50
2022-09-07T18:46:51.054Z,100226.91
2022-09-07T18:49:54.656Z,100237.22
2022-09-07T18:53:07.208Z,100234.91
2022-09-07T18:56:23.964Z,100227.06
2022-09-07T18:59:26.478Z,100232.38
2022-09-07T19:02:28.905Z,100209.38
2022-09-07T19:08:55.837Z,100225.66
2022-09-07T19:11:58.377Z,100229.31
2022-09-07T19:15:00.644Z,100223.84
2022-09-07T19:18:05.694Z,100224.72
2022-09-07T19:21:16.090Z,100222.41
2022-09-07T19:24:19.305Z,100204.22
2022-09-07T19:27:21.572Z,100225.03
2022-09-07T19:30:24.199Z,100229.56
2022-09-07T19:33:26.409Z,100223.59
2022-09-07T19:36:37.163Z,100231.75
2022-09-07T19:39:39.890Z,100210.28
2022-09-07T19:42:42.893Z,100227.06
2022-09-07T19:45:47.546Z,100222.63
2022-09-07T19:48:50.130Z,100224.28
2022-09-07T19:51:52.465Z,100221.13
2022-09-07T19:54:57.199Z,100214.44
2022-09-07T19:57:59.498Z,100219.56
2022-09-07T20:01:18.895Z,100202.47
2022-09-07T20:04:23.552Z,100222.38
2022-09-07T20:07:25.892Z,100220.81
2022-09-07T20:10:30.133Z,100214.44
2022-09-07T20:13:32.688Z,100173.19
2022-09-07T20:16:39.347Z,100227.78
2022-09-07T20:19:41.689Z,100200.28
2022-09-07T20:22:44.477Z,100217.06
2022-09-07T20:25:57.504Z,100225.56
2022-09-07T20:29:23.815Z,100211.25
2022-09-07T20:32:22.343Z,100208.19
2022-09-07T20:35:24.867Z,100223.37
2022-09-07T20:38:29.606Z,100221.00
2022-09-07T20:41:34.083Z,100225.47
2022-09-07T20:44:36.608Z,100221.53
2022-09-07T20:47:39.203Z,100211.28
2022-09-07T20:50:42.067Z,100223.63
2022-09-07T20:53:46.209Z,100222.91
2022-09-07T20:56:48.403Z,100204.28
2022-09-07T20:59:50.969Z,100192.28
2022-09-07T21:02:53.260Z,100188.75
2022-09-07T21:05:55.858Z,100207.94
2022-09-07T21:08:58.725Z,100190.09
2022-09-07T21:12:01.251Z,100184.16
2022-09-07T21:15:03.711Z,100189.87
2022-09-07T21:18:08.476Z,100201.50
2022-09-07T21:21:21.405Z,100202.34
2022-09-07T21:24:24.115Z,100202.44
2022-09-07T21:27:26.359Z,100194.06
2022-09-07T21:30:28.999Z,100183.75
2022-09-07T21:33:33.435Z,100193.81
2022-09-07T21:36:36.164Z,100209.78
2022-09-07T21:39:38.424Z,100196.28
2022-09-07T21:42:41.124Z,100194.69
2022-09-07T21:45:45.621Z,100210.25
2022-09-07T21:48:48.138Z,100193.94
2022-09-07T21:51:50.383Z,100194.34
2022-09-07T21:54:53.083Z,100206.72
2022-09-07T21:57:57.764Z,100203.91
2022-09-07T22:01:09.138Z,100188.03
2022-09-07T22:04:12.101Z,100213.19
2022-09-07T22:07:14.638Z,100203.66
2022-09-07T22:10:17.133Z,100182.94
2022-09-07T22:13:19.434Z,100188.63
2022-09-07T22:16:22.328Z,100189.44
2022-09-07T22:19:24.628Z,100212.63
2022-09-07T22:22:27.191Z,100210.59
2022-09-07T22:25:29.388Z,100201.53
2022-09-07T22:28:32.630Z,100205.47
2022-09-07T22:31:37.316Z,100185.97
2022-09-07T22:34:39.944Z,100196.34
2022-09-07T22:37:42.171Z,100207.16
2022-09-07T22:40:44.719Z,100192.03
2022-09-07T22:43:50.124Z,100207.97
2022-09-07T22:46:52.974Z,100207.22
2022-09-07T22:49:55.504Z,100204.00
2022-09-07T22:52:58.017Z,100196.47
2022-09-07T22:56:00.733Z,100184.81
2022-09-07T22:59:07.552Z,100182.47
2022-09-07T23:02:09.762Z,100187.25
2022-09-07T23:05:12.373Z,100188.91
2022-09-07T23:08:14.712Z,100179.72
2022-09-07T23:11:17.776Z,100160.97
2022-09-07T23:14:24.391Z,100180.13
2022-09-07T23:17:26.917Z,100178.56
2022-09-07T23:20:29.140Z,100159.44
2022-09-07T23:23:31.695Z,100153.00
2022-09-07T23:26:34.069Z,100147.44
2022-09-07T23:29:36.538Z,100140.66
2022-09-07T23:32:38.910Z,100163.41
2022-09-07T23:35:42.051Z,100134.28
2022-09-07T23:38:45.313Z,100141.06
2022-09-07T23:41:47.686Z,100124.34
2022-09-07T23:44:49.809Z,100147.50
2022-09-07T23:47:52.311Z,100136.31
2022-09-07T23:50:54.982Z,100114.00
2022-09-07T23:53:57.765Z,100140.81
2022-09-07T23:57:00.283Z,100118.50
